Time;durP1;ratioP1;P1;durP2;ratioP2;P2;SDS_P1;SDS_P2;PMS_P1;PMS_P2;Temp;Humidity;BMP_temperature;BMP_pressure;BME280_temperature;BME280_humidity;BME280_pressure;Samples;Min_cycle;Max_cycle;Signal;HPM_P1;HPM_P2
2022/04/26 03:41:52;;;;;;;15.95;4.55;;;;;;;11.78;79.01;100199.44;4686856;30;20201;-74
2022/04/26 03:48:11;;;;;;;21.98;6.03;;;;;;;11.62;79.00;100199.53;4674860;30;20078;-73
2022/04/26 03:53:59;;;;;;;7.13;4.65;;;;;;;11.92;78.21;100249.31;4694492;30;20080;-73
2022/04/26 03:56:24;;;;;;;12.23;5.30;;;;;;;11.76;78.27;100215.22;4690529;30;20050;-74
2022/04/26 04:05:58;;;;;;;13.55;6.00;;;;;;;11.90;78.15;100217.75;4692103;30;20108;-74
2022/04/26 04:08:25;;;;;;;21.42;5.15;;;;;;;12.15;79.11;100260.50;4671633;30;20070;-74
2022/04/26 04:10:51;;;;;;;24.30;5.90;;;;;;;11.93;78.69;100216.84;4672985;30;20134;-74
2022/04/26 04:13:18;;;;;;;21.15;6.53;;;;;;;11.76;77.38;100219.59;4672485;30;20046;-74
2022/04/26 04:15:56;;;;;;;11.48;4.72;;;;;;;11.52;77.62;100228.50;4690476;30;20072;-74
2022/04/26 04:21:06;;;;;;;9.43;6.28;;;;;;;11.87;75.88;100254.59;4688118;30;20049;-74
2022/04/26 04:23:40;;;;;;;11.13;4.60;;;;;;;11.99;75.45;100248.38;4687860;30;20046;-73
2022/04/26 04:29:52;;;;;;;12.63;5.32;;;;;;;12.28;74.13;100252.50;4689723;30;20053;-74
2022/04/26 04:32:50;;;;;;;14.38;4.47;;;;;;;12.41;73.16;100257.63;4689481;30;20046;-74
2022/04/26 04:35:16;;;;;;;7.90;4.03;;;;;;;12.64;71.92;100295.97;4675305;30;20038;-74
2022/04/26 04:41:59;;;;;;;9.70;5.25;;;;;;;12.66;71.23;100283.66;4688383;30;20077;-73
2022/04/26 04:44:25;;;;;;;13.50;4.57;;;;;;;12.73;70.69;100287.09;4672125;30;20045;-73
2022/04/26 04:56:56;;;;;;;9.48;3.10;;;;;;;12.79;70.87;100284.41;4668899;30;20065;-73
2022/04/26 04:59:59;;;;;;;11.55;4.20;;;;;;;12.95;68.79;100283.34;4665839;30;20061;-73
2022/04/26 05:03:18;;;;;;;7.30;5.00;;;;;;;13.19;68.51;100286.56;4658592;30;20045;-74
2022/04/26 05:12:44;;;;;;;8.30;4.70;;;;;;;13.80;68.17;100327.94;4662512;30;20073;-73
2022/04/26 05:15:10;;;;;;;14.93;4.43;;;;;;;13.80;65.82;100304.19;4659710;30;20050;-72
2022/04/26 05:21:39;;;;;;;14.23;4.53;;;;;;;14.22;67.15;100340.50;4668953;30;20113;-73
2022/04/26 05:27:31;;;;;;;9.90;4.38;;;;;;;14.23;66.18;100321.13;4668129;30;20049;-74
2022/04/26 05:33:18;;;;;;;9.90;4.07;;;;;;;15.37;63.48;100333.97;4668046;30;20044;-74
2022/04/26 05:35:47;;;;;;;16.92;4.75;;;;;;;15.56;63.79;100338.88;4665455;30;20042;-74
2022/04/26 05:42:05;;;;;;;11.43;4.53;;;;;;;16.24;62.58;100315.25;4687264;30;20427;-73
2022/04/26 05:47:53;;;;;;;21.50;7.00;;;;;;;16.74;60.99;100349.31;4678329;30;20050;-74
2022/04/26 05:50:18;;;;;;;16.17;6.25;;;;;;;17.10;60.61;100357.22;4668505;30;20099;-74
2022/04/26 05:56:31;;;;;;;22.95;6.53;;;;;;;17.34;59.29;100328.25;4668575;30;20109;-74
2022/04/26 06:02:30;;;;;;;14.48;6.22;;;;;;;17.98;56.45;100323.69;4686381;30;20076;-74
2022/04/26 06:08:18;;;;;;;8.43;4.03;;;;;;;18.23;51.05;100344.13;4685601;30;20067;-73
2022/04/26 06:10:59;;;;;;;9.35;4.15;;;;;;;18.30;50.46;100335.03;4671261;30;20042;-74
2022/04/26 06:13:26;;;;;;;8.75;3.67;;;;;;;17.60;52.11;100333.63;4664205;30;20046;-75
2022/04/26 06:15:51;;;;;;;5.90;2.67;;;;;;;18.13;49.52;100341.75;4670035;30;20081;-74
2022/04/26 06:18:18;;;;;;;8.55;3.72;;;;;;;18.84;49.86;100373.09;4671314;30;20034;-74
2022/04/26 06:24:34;;;;;;;10.13;2.72;;;;;;;18.66;48.58;100374.56;4649666;30;20145;-74
2022/04/26 06:30:25;;;;;;;6.60;2.63;;;;;;;18.67;48.11;100377.16;4651359;30;20046;-73
2022/04/26 06:36:49;;;;;;;6.80;3.42;;;;;;;18.60;49.08;100382.75;4652250;30;20109;-74
2022/04/26 06:39:16;;;;;;;11.88;3.85;;;;;;;18.61;49.57;100345.47;4648442;30;20053;-74
2022/04/26 06:45:41;;;;;;;10.35;3.33;;;;;;;18.80;51.04;100350.19;4633507;30;20054;-74
2022/04/26 06:48:08;;;;;;;4.80;2.63;;;;;;;18.90;50.41;100363.13;4632830;30;20563;-74
2022/04/26 06:50:34;;;;;;;6.72;2.60;;;;;;;18.80;47.63;100379.44;4643756;30;20063;-74
2022/04/26 07:00:13;;;;;;;6.82;1.95;;;;;;;19.00;48.46;100389.38;4650151;30;20416;-74
2022/04/26 07:06:03;;;;;;;4.55;1.77;;;;;;;18.38;49.48;100382.56;4632708;30;20074;-74
2022/04/26 07:11:51;;;;;;;10.00;2.88;;;;;;;18.82;46.65;100381.13;4641814;30;20073;-74
2022/04/26 07:14:17;;;;;;;9.43;2.85;;;;;;;19.03;46.73;100384.81;4685757;30;20058;-74
2022/04/26 07:16:48;;;;;;;12.52;2.92;;;;;;;18.71;47.94;100370.84;4672246;30;20080;-73
2022/04/26 07:19:57;;;;;;;8.73;2.22;;;;;;;18.56;46.61;100360.72;4692380;30;20110;-73
2022/04/26 07:22:23;;;;;;;10.15;1.90;;;;;;;18.85;48.23;100383.69;4684106;30;20109;-74
2022/04/26 07:34:56;;;;;;;6.18;2.97;;;;;;;18.52;46.68;100364.41;4669663;30;20077;-73
2022/04/26 07:37:45;;;;;;;5.35;1.90;;;;;;;18.62;46.54;100362.31;4668806;30;20121;-75
2022/04/26 07:40:51;;;;;;;3.97;1.33;;;;;;;18.78;44.12;100390.13;4654444;30;20507;-73
2022/04/26 07:46:39;;;;;;;5.72;1.92;;;;;;;19.02;44.40;100396.38;4666686;30;20069;-75
2022/04/26 07:49:06;;;;;;;2.67;1.40;;;;;;;19.06;44.06;100394.47;4681003;30;20042;-73
2022/04/26 07:52:10;;;;;;;5.70;2.20;;;;;;;19.27;44.60;100399.06;4685727;30;20553;-74
2022/04/26 07:58:00;;;;;;;5.45;2.58;;;;;;;19.15;45.94;100407.44;4680536;30;20089;-75
2022/04/26 08:00:33;;;;;;;9.30;3.13;;;;;;;19.00;45.29;100384.06;4687310;30;20478;-73
2022/04/26 08:03:33;;;;;;;5.63;3.00;;;;;;;19.33;44.54;100404.13;4684893;30;20062;-72
2022/04/26 08:06:35;;;;;;;11.50;2.33;;;;;;;19.27;43.92;100358.25;4685056;30;20050;-72
2022/04/26 08:09:00;;;;;;;4.43;2.13;;;;;;;19.23;44.86;100362.84;4666755;30;20054;-73
2022/04/26 08:11:28;;;;;;;13.57;2.95;;;;;;;19.30;45.84;100368.81;4664623;30;20050;-73
2022/04/26 08:20:38;;;;;;;5.70;3.45;;;;;;;19.67;45.17;100375.41;4668683;30;20141;-72
2022/04/26 08:33:01;;;;;;;6.25;3.45;;;;;;;19.58;43.32;100373.97;4668264;30;20121;-73
2022/04/26 08:35:30;;;;;;;10.45;2.85;;;;;;;19.77;44.16;100383.00;4661510;30;20038;-73
2022/04/26 08:37:55;;;;;;;8.35;2.92;;;;;;;19.85;44.53;100349.88;4669677;30;20034;-73
2022/04/26 08:43:49;;;;;;;4.25;2.22;;;;;;;20.42;42.25;100394.63;4685191;30;20092;-69
2022/04/26 08:46:15;;;;;;;3.38;2.00;;;;;;;20.16;42.56;100365.53;4680105;30;20053;-69
2022/04/26 08:51:24;;;;;;;4.15;2.70;;;;;;;20.30;42.76;100367.59;4671025;30;20089;-69
2022/04/26 08:53:50;;;;;;;5.60;1.98;;;;;;;20.24;43.21;100374.06;4657243;30;20047;-69
2022/04/26 08:56:16;;;;;;;6.28;2.50;;;;;;;20.24;46.89;100374.91;4669247;30;20069;-69
2022/04/26 08:58:44;;;;;;;6.20;2.83;;;;;;;20.05;47.83;100375.75;4669519;30;20050;-70
2022/04/26 09:01:11;;;;;;;7.07;3.20;;;;;;;20.42;45.20;100386.63;4670290;30;20159;-73
2022/04/26 09:03:54;;;;;;;4.57;2.05;;;;;;;20.31;47.36;100366.69;4682061;30;20034;-68
2022/04/26 09:10:29;;;;;;;4.03;2.00;;;;;;;20.78;43.39;100386.03;4684360;30;20056;-70
2022/04/26 09:16:36;;;;;;;5.07;2.83;;;;;;;21.40;40.35;100389.59;4667999;30;20138;-76
2022/04/26 09:19:07;;;;;;;3.78;2.50;;;;;;;21.81;39.39;100362.75;4664666;30;20058;-76
2022/04/26 09:28:24;;;;;;;7.07;2.22;;;;;;;22.35;39.53;100378.91;4664142;30;20048;-76
2022/04/26 09:34:38;;;;;;;6.55;2.67;;;;;;;22.99;40.88;100369.44;4651645;30;20045;-76
2022/04/26 09:37:31;;;;;;;3.35;2.15;;;;;;;23.00;40.49;100389.91;4662439;30;20042;-76
2022/04/26 09:42:59;;;;;;;3.72;1.95;;;;;;;22.85;37.99;100350.53;4650658;30;20253;-77
2022/04/26 09:48:46;;;;;;;7.38;2.00;;;;;;;22.52;38.40;100352.22;4647915;30;20097;-70
2022/04/26 09:51:32;;;;;;;3.45;2.00;;;;;;;23.69;40.79;100366.59;4659909;30;20062;-77
2022/04/26 09:53:58;;;;;;;5.90;1.77;;;;;;;23.65;38.28;100346.28;4673565;30;20057;-70
2022/04/26 11:05:51;;;;;;;6.32;3.15;;;;;;;25.72;32.90;100344.72;4803840;27;8144507;-81
2022/04/26 11:08:17;;;;;;;21.77;5.82;;;;;;;25.73;32.62;100341.09;5077468;28;20051;-85
2022/04/26 11:11:07;;;;;;;12.90;4.85;;;;;;;25.75;31.82;100343.66;5082481;28;20043;-79
2022/04/26 11:13:35;;;;;;;11.15;4.00;;;;;;;25.08;31.99;100338.03;5083153;28;20052;-79
2022/04/26 11:16:13;;;;;;;11.43;5.50;;;;;;;24.61;34.20;100324.72;5082387;28;20043;-86
2022/04/26 11:18:42;;;;;;;13.60;4.25;;;;;;;24.24;33.67;100317.94;5080561;28;20036;-86
2022/04/26 11:21:09;;;;;;;7.63;2.80;;;;;;;24.98;33.66;100332.31;5090333;28;20147;-88
2022/04/26 11:29:25;;;;;;;12.77;4.18;;;;;;;24.95;33.35;100284.19;5097589;28;20397;-82
2022/04/26 11:31:52;;;;;;;12.32;4.57;;;;;;;25.52;33.26;100312.88;5083405;28;20553;-88
2022/04/26 11:34:17;;;;;;;10.48;3.17;;;;;;;25.17;32.91;100324.88;5083387;27;20049;-87
2022/04/26 11:36:43;;;;;;;7.53;2.42;;;;;;;25.11;33.16;100321.72;5097366;27;20152;-81
2022/04/26 11:39:09;;;;;;;9.35;3.90;;;;;;;24.50;33.75;100311.06;5082837;28;20043;-86
2022/04/26 11:41:35;;;;;;;21.08;8.10;;;;;;;24.41;32.57;100316.94;5100938;28;20716;-85
2022/04/26 11:44:06;;;;;;;21.35;8.18;;;;;;;24.68;32.95;100301.06;5082831;28;20107;-80
2022/04/26 11:46:34;;;;;;;13.68;5.63;;;;;;;24.65;32.58;100306.59;5097906;28;20051;-86
2022/04/26 11:49:04;;;;;;;16.08;5.32;;;;;;;24.49;32.67;100306.66;5085771;28;20624;-84
2022/04/26 11:51:31;;;;;;;16.80;7.40;;;;;;;24.09;33.09;100281.28;5094835;28;20027;-88
2022/04/26 11:53:57;;;;;;;15.00;4.28;;;;;;;24.43;33.44;100269.44;5090724;27;20059;-82
2022/04/26 11:56:22;;;;;;;6.97;3.47;;;;;;;24.81;32.65;100311.88;5065703;28;20051;-79
2022/04/26 11:58:48;;;;;;;6.20;3.25;;;;;;;24.11;30.65;100282.91;5083179;28;20040;-85
2022/04/26 12:01:16;;;;;;;8.75;3.10;;;;;;;24.63;31.69;100309.38;5078819;28;20113;-82
2022/04/26 12:03:51;;;;;;;8.98;4.15;;;;;;;24.36;32.74;100281.47;5096212;28;20587;-79
2022/04/26 12:06:20;;;;;;;10.02;3.72;;;;;;;22.86;32.70;100256.81;5065844;28;20039;-82
2022/04/26 12:08:59;;;;;;;7.13;3.67;;;;;;;23.79;32.28;100290.16;5076895;28;20056;-80
2022/04/26 12:11:35;;;;;;;11.98;5.15;;;;;;;24.21;33.52;100269.84;5060017;28;22244;-79
2022/04/26 12:14:14;;;;;;;10.93;4.97;;;;;;;24.15;31.92;100271.06;5067672;28;20089;-78
2022/04/26 12:16:47;;;;;;;11.07;3.00;;;;;;;24.15;30.54;100264.84;5062269;28;20087;-82
2022/04/26 12:19:14;;;;;;;8.82;2.17;;;;;;;24.13;31.33;100256.88;5064749;28;20049;-84
2022/04/26 12:21:56;;;;;;;5.18;2.05;;;;;;;24.55;30.22;100286.66;5053184;28;20044;-88
2022/04/26 12:24:33;;;;;;;6.15;1.98;;;;;;;24.60;30.38;100271.97;5068039;28;20041;-89
2022/04/26 12:27:00;;;;;;;5.07;1.33;;;;;;;24.69;31.18;100280.44;5063345;28;20063;-83
2022/04/26 12:29:32;;;;;;;4.05;1.00;;;;;;;23.25;30.67;100271.69;5051900;28;20044;-86
2022/04/26 12:31:58;;;;;;;2.97;1.25;;;;;;;23.87;32.34;100277.16;5063017;28;20036;-83
2022/04/26 12:34:32;;;;;;;1.55;1.10;;;;;;;22.67;31.82;100254.25;5046801;28;20054;-81
2022/04/26 12:37:11;;;;;;;4.68;2.03;;;;;;;23.52;32.77;100276.47;5067913;28;20056;-80
2022/04/26 12:39:44;;;;;;;12.10;3.58;;;;;;;23.64;36.52;100238.25;5065511;28;20062;-81
2022/04/26 12:42:12;;;;;;;8.18;3.85;;;;;;;23.42;35.47;100245.81;5070317;28;20052;-80
2022/04/26 12:44:54;;;;;;;3.60;1.27;;;;;;;23.76;32.94;100244.75;5055377;28;20048;-80
2022/04/26 12:52:50;;;;;;;8.90;2.03;;;;;;;23.90;34.51;100219.84;5064133;28;20066;-81
2022/04/26 12:55:27;;;;;;;6.45;1.95;;;;;;;23.76;33.81;100248.34;5065378;28;20052;-81
2022/04/26 12:57:55;;;;;;;1.65;1.10;;;;;;;23.95;34.00;100249.91;5066254;28;20040;-81
2022/04/26 13:00:24;;;;;;;4.38;1.60;;;;;;;23.58;33.78;100238.63;5038881;28;20141;-80
2022/04/26 13:02:51;;;;;;;1.98;0.93;;;;;;;23.61;33.24;100246.47;5045019;28;20130;-82
2022/04/26 13:05:17;;;;;;;5.93;1.27;;;;;;;23.79;33.33;100204.41;5060118;28;20398;-81
2022/04/26 13:07:46;;;;;;;2.53;1.48;;;;;;;23.39;32.75;100215.56;5070885;28;20045;-77
2022/04/26 13:10:12;;;;;;;1.52;0.90;;;;;;;23.45;31.94;100232.22;5071824;28;20041;-81
2022/04/26 13:12:38;;;;;;;7.07;2.55;;;;;;;23.60;32.95;100232.22;5067114;28;20119;-79
2022/04/26 13:15:08;;;;;;;19.00;1.45;;;;;;;23.68;32.90;100210.34;5072232;28;20190;-79
2022/04/26 13:17:37;;;;;;;5.50;1.80;;;;;;;23.77;33.19;100217.88;5065998;28;20047;-81
2022/04/26 13:20:13;;;;;;;1.50;1.02;;;;;;;23.64;33.29;100245.44;5070581;28;20202;-80
2022/04/26 13:22:40;;;;;;;4.07;1.25;;;;;;;23.50;32.03;100216.75;5071482;28;20063;-79
2022/04/26 13:25:07;;;;;;;2.90;1.85;;;;;;;23.92;32.25;100232.19;5063439;28;20463;-81
2022/04/26 13:27:37;;;;;;;3.95;1.30;;;;;;;23.62;32.26;100226.75;5070255;28;20032;-81
2022/04/26 13:30:07;;;;;;;5.28;1.65;;;;;;;23.69;31.62;100213.88;5064496;28;20499;-80
2022/04/26 13:32:34;;;;;;;4.22;1.40;;;;;;;23.21;33.39;100200.53;5065573;28;20103;-79
2022/04/26 13:35:01;;;;;;;5.68;1.80;;;;;;;23.14;33.16;100201.81;5069325;28;20142;-80
2022/04/26 13:37:27;;;;;;;7.07;2.35;;;;;;;23.61;33.15;100227.72;5064186;28;20056;-81
2022/04/26 13:39:54;;;;;;;4.95;2.75;;;;;;;23.62;33.74;100239.31;5061084;28;20040;-78
2022/04/26 13:42:23;;;;;;;2.55;1.73;;;;;;;23.53;33.42;100197.81;5069150;28;20059;-80
2022/04/26 13:44:49;;;;;;;4.55;1.95;;;;;;;23.49;34.00;100205.19;5064079;28;20057;-79
2022/04/26 13:47:15;;;;;;;5.05;2.72;;;;;;;23.53;34.20;100225.50;5064522;28;20101;-80
2022/04/26 13:49:41;;;;;;;4.35;1.73;;;;;;;23.51;33.78;100203.28;5046925;28;20052;-80
2022/04/26 13:52:13;;;;;;;5.53;2.20;;;;;;;23.57;35.14;100188.66;5058029;28;20048;-80
2022/04/26 13:54:39;;;;;;;;;;;;;;;23.02;35.40;100191.81;5068493;28;20040;-82
2022/04/26 13:57:06;;;;;;;3.03;1.55;;;;;;;23.05;34.36;100210.34;5042887;28;19924;-82
2022/04/26 13:59:32;;;;;;;6.30;1.92;;;;;;;23.13;34.39;100194.72;5068158;28;20043;-79
2022/04/26 14:01:58;;;;;;;5.55;2.13;;;;;;;22.95;34.27;100197.44;5049591;28;20048;-81
2022/04/26 14:04:27;;;;;;;5.00;1.77;;;;;;;22.89;34.86;100234.38;5046717;28;20052;-80
2022/04/26 14:06:58;;;;;;;4.85;2.03;;;;;;;22.81;34.74;100228.59;5082467;28;20059;-79
2022/04/26 14:09:24;;;;;;;4.28;1.60;;;;;;;22.66;35.98;100200.81;5085882;28;20096;-81
2022/04/26 14:11:51;;;;;;;3.33;2.13;;;;;;;22.54;34.59;100188.97;5082969;28;20060;-79
2022/04/26 14:22:32;;;;;;;6.22;1.77;;;;;;;22.88;34.27;100195.19;5095860;28;20109;-82
2022/04/26 14:25:08;;;;;;;3.75;1.35;;;;;;;22.91;33.88;100181.63;5069602;28;20127;-81
2022/04/26 14:27:36;;;;;;;9.73;3.83;;;;;;;23.15;33.46;100198.19;5084947;28;20178;-79
2022/04/26 14:30:03;;;;;;;4.22;1.50;;;;;;;23.33;32.61;100193.63;5086783;28;20047;-81
2022/04/26 14:32:29;;;;;;;3.90;2.05;;;;;;;23.49;32.42;100188.25;5070777;28;20052;-79
2022/04/26 14:34:56;;;;;;;4.75;1.63;;;;;;;23.60;33.38;100223.34;5082560;28;20056;-79
2022/04/26 14:37:24;;;;;;;2.65;1.20;;;;;;;23.67;32.79;100192.56;5083649;28;20407;-80
2022/04/26 14:39:52;;;;;;;5.97;1.75;;;;;;;23.59;33.27;100186.75;5070603;28;20040;-80
2022/04/26 14:42:18;;;;;;;3.50;2.10;;;;;;;23.27;33.03;100181.44;5070007;28;20526;-79
2022/04/26 14:44:44;;;;;;;4.75;2.65;;;;;;;23.75;32.29;100210.91;5073039;28;20081;-80
2022/04/26 14:47:12;;;;;;;5.13;2.08;;;;;;;23.51;33.75;100189.91;5073176;28;20044;-80
2022/04/26 14:49:39;;;;;;;3.78;1.67;;;;;;;23.78;32.97;100221.44;5081213;28;20044;-81
2022/04/26 14:52:06;;;;;;;4.35;1.67;;;;;;;23.64;32.92;100187.34;5070705;28;20054;-81
2022/04/26 14:54:33;;;;;;;4.55;1.92;;;;;;;23.71;32.91;100211.97;5071434;28;20035;-80
2022/04/26 14:56:59;;;;;;;4.88;1.55;;;;;;;23.63;35.42;100212.44;5071210;28;20047;-78
2022/04/26 14:59:25;;;;;;;3.13;1.98;;;;;;;23.11;35.13;100173.41;5072615;28;20111;-80
2022/04/26 15:01:52;;;;;;;2.58;1.48;;;;;;;23.24;33.15;100183.41;5075272;28;20172;-80
2022/04/26 15:04:25;;;;;;;4.60;1.95;;;;;;;23.46;33.99;100218.75;5078474;28;20040;-81
2022/04/26 15:06:51;;;;;;;4.60;2.13;;;;;;;23.38;33.62;100221.84;5073802;28;20097;-78
2022/04/26 15:17:33;;;;;;;7.78;2.03;;;;;;;23.02;36.70;100173.94;5075810;28;20634;-78
2022/04/26 15:20:00;;;;;;;9.70;1.77;;;;;;;23.29;34.32;100167.97;5062164;28;21260;-82
2022/04/26 15:22:26;;;;;;;6.43;2.53;;;;;;;22.97;35.23;100174.16;5072223;28;20168;-78
2022/04/26 15:24:54;;;;;;;10.15;1.55;;;;;;;22.75;36.37;100176.25;5051853;28;23656;-80
2022/04/26 15:27:21;;;;;;;3.15;1.92;;;;;;;23.03;35.21;100209.56;5072277;28;20032;-80
2022/04/26 15:29:47;;;;;;;10.48;3.92;;;;;;;22.90;35.82;100202.19;5081274;28;20052;-80
2022/04/26 15:32:15;;;;;;;4.88;2.45;;;;;;;22.63;36.16;100172.44;5082765;28;20052;-77
2022/04/26 15:34:40;;;;;;;6.90;2.65;;;;;;;22.53;36.06;100190.78;5064931;28;20112;-80
2022/04/26 15:37:07;;;;;;;6.82;1.95;;;;;;;22.86;35.77;100207.78;5075525;28;20149;-78
2022/04/26 15:39:34;;;;;;;7.90;3.63;;;;;;;22.54;36.63;100205.88;5076777;28;20036;-79
2022/04/26 15:42:05;;;;;;;10.32;2.10;;;;;;;22.45;36.62;100210.84;5072014;28;20465;-78
2022/04/26 15:44:30;;;;;;;24.58;8.57;;;;;;;22.50;35.92;100214.16;5065092;28;20112;-79
2022/04/26 15:46:58;;;;;;;37.40;15.05;;;;;;;22.43;35.58;100218.09;5066526;28;20044;-79
2022/04/26 15:49:25;;;;;;;75.10;31.67;;;;;;;22.06;35.86;100174.53;5062485;28;20064;-78
2022/04/26 15:51:54;;;;;;;43.75;15.10;;;;;;;22.25;36.08;100218.13;5065912;28;20086;-85
2022/04/26 15:54:21;;;;;;;110.90;57.83;;;;;;;22.44;36.45;100218.03;5082479;28;21013;-78
2022/04/26 15:56:47;;;;;;;183.45;108.90;;;;;;;22.27;36.25;100188.63;5083342;28;20043;-80
2022/04/26 15:59:13;;;;;;;92.43;48.50;;;;;;;22.20;36.83;100195.22;5056619;28;20047;-83
2022/04/26 16:01:40;;;;;;;79.57;40.00;;;;;;;22.25;36.50;100220.78;5081558;28;20075;-86
2022/04/26 16:04:06;;;;;;;20.33;8.43;;;;;;;22.46;35.52;100225.97;5061276;28;20052;-85
2022/04/26 16:06:34;;;;;;;10.25;6.00;;;;;;;22.11;37.72;100231.28;5076129;28;20564;-84
2022/04/26 16:22:44;;;;;;;8.23;3.95;;;;;;;21.74;37.62;100201.06;5088600;28;20054;-82
2022/04/26 16:25:09;;;;;;;12.10;7.28;;;;;;;21.71;38.11;100204.75;5093323;28;20051;-80
2022/04/26 16:27:35;;;;;;;11.43;5.15;;;;;;;21.79;39.16;100235.56;5072369;28;20028;-83
2022/04/26 16:30:01;;;;;;;7.30;3.28;;;;;;;21.75;38.04;100202.81;5070170;28;20057;-82
2022/04/26 16:32:29;;;;;;;5.28;2.95;;;;;;;21.70;40.96;100236.88;5077218;28;24841;-80
2022/04/26 16:34:57;;;;;;;4.43;2.58;;;;;;;21.67;40.00;100242.38;5078837;28;20048;-83
2022/04/26 16:37:28;;;;;;;4.45;2.35;;;;;;;21.24;40.93;100212.38;5090384;28;20681;-85
2022/04/26 16:39:54;;;;;;;5.38;2.00;;;;;;;21.46;40.56;100247.81;5072166;28;20499;-84
2022/04/26 16:42:20;;;;;;;4.68;2.33;;;;;;;21.63;40.18;100249.69;5052645;28;20036;-83
2022/04/26 16:44:46;;;;;;;6.18;1.70;;;;;;;21.49;40.18;100249.47;5062057;28;20039;-82
2022/04/26 16:47:19;;;;;;;6.97;2.72;;;;;;;21.44;40.93;100255.00;5067710;28;20620;-83
2022/04/26 16:49:46;;;;;;;3.95;2.10;;;;;;;21.38;40.29;100263.31;5085103;28;20151;-80
2022/04/26 16:52:12;;;;;;;3.05;1.45;;;;;;;21.28;40.70;100260.22;5079385;28;20047;-83
2022/04/26 16:54:41;;;;;;;7.55;2.35;;;;;;;21.30;40.99;100257.44;5087172;28;20032;-84
2022/04/26 16:57:08;;;;;;;3.78;2.38;;;;;;;21.34;40.69;100268.84;5066675;28;20048;-81
2022/04/26 16:59:34;;;;;;;4.57;2.00;;;;;;;21.14;41.31;100262.66;5085532;28;20570;-83
2022/04/26 17:02:00;;;;;;;4.00;2.03;;;;;;;21.17;42.07;100269.66;5086207;28;20844;-83
2022/04/26 17:04:27;;;;;;;3.92;2.08;;;;;;;21.21;41.22;100274.78;5080994;28;20056;-82
2022/04/26 17:06:58;;;;;;;4.25;1.98;;;;;;;21.24;41.46;100271.09;5079885;28;20059;-80
2022/04/26 17:09:24;;;;;;;5.15;2.35;;;;;;;21.10;41.85;100274.41;5069669;28;20039;-84
2022/04/26 17:11:52;;;;;;;6.85;3.10;;;;;;;20.99;43.37;100271.34;5071138;28;20047;-83
2022/04/26 17:14:19;;;;;;;4.30;2.40;;;;;;;20.93;42.28;100283.19;5068476;28;20109;-83
2022/04/26 17:16:47;;;;;;;14.25;3.08;;;;;;;20.92;43.27;100275.22;5078904;28;20052;-83
2022/04/26 17:19:17;;;;;;;12.25;3.05;;;;;;;20.85;43.16;100283.50;5073477;28;20415;-82
2022/04/26 17:21:48;;;;;;;6.07;2.33;;;;;;;20.71;43.66;100283.25;5085088;28;20087;-80
2022/04/26 17:27:04;;;;;;;6.80;2.70;;;;;;;20.44;43.99;100243.50;5056071;28;20105;-81
2022/04/26 17:29:30;;;;;;;4.80;2.03;;;;;;;20.70;43.46;100283.31;5080848;28;20523;-84
2022/04/26 17:31:56;;;;;;;8.30;2.47;;;;;;;20.66;43.90;100293.25;5080247;28;20048;-85
2022/04/26 17:34:23;;;;;;;7.93;3.05;;;;;;;20.60;44.03;100290.84;5065807;28;20052;-82
2022/04/26 17:36:49;;;;;;;6.88;2.53;;;;;;;20.24;44.00;100255.00;5086662;28;20028;-83
2022/04/26 17:39:16;;;;;;;5.78;2.72;;;;;;;20.48;44.39;100307.34;5083584;28;20027;-85
2022/04/26 17:41:43;;;;;;;8.23;2.80;;;;;;;20.47;43.92;100301.16;5077916;28;20046;-83
2022/04/26 17:44:10;;;;;;;10.90;2.40;;;;;;;20.47;44.32;100306.47;5068309;28;20059;-84
2022/04/26 17:46:37;;;;;;;6.65;3.00;;;;;;;20.30;44.84;100301.88;5081589;28;20137;-84
2022/04/26 17:49:04;;;;;;;8.40;3.03;;;;;;;20.29;44.99;100313.44;5069155;28;20609;-85
2022/04/26 17:51:30;;;;;;;11.38;3.88;;;;;;;20.00;44.95;100280.91;5079553;28;20507;-83
2022/04/26 17:56:40;;;;;;;6.43;2.95;;;;;;;19.78;46.05;100288.00;5071037;28;20135;-80
2022/04/26 17:59:07;;;;;;;9.43;3.97;;;;;;;20.01;46.05;100321.72;5080942;28;20100;-83
2022/04/26 18:01:36;;;;;;;7.43;3.35;;;;;;;19.93;46.38;100327.34;5063973;28;20059;-82
2022/04/26 18:04:03;;;;;;;6.85;2.92;;;;;;;20.04;45.56;100334.88;5079104;28;20124;-81
2022/04/26 18:06:31;;;;;;;4.70;2.53;;;;;;;19.99;45.55;100339.53;5066869;28;20063;-84
2022/04/26 18:08:59;;;;;;;6.45;2.47;;;;;;;19.95;46.36;100337.97;5081195;28;20052;-86
2022/04/26 18:11:26;;;;;;;5.47;2.50;;;;;;;19.95;45.75;100344.16;5077395;28;20051;-85
2022/04/26 18:13:53;;;;;;;9.18;3.05;;;;;;;19.93;46.04;100345.13;5078194;28;20186;-80
2022/04/26 18:16:26;;;;;;;6.82;2.70;;;;;;;19.85;45.90;100356.06;5059005;28;20039;-85
2022/04/26 18:18:57;;;;;;;11.00;3.72;;;;;;;19.62;46.65;100325.00;5086786;28;20059;-83
2022/04/26 18:21:24;;;;;;;8.32;2.92;;;;;;;19.77;46.67;100367.03;5067393;28;20039;-83
2022/04/26 18:23:51;;;;;;;8.98;3.75;;;;;;;19.67;46.83;100362.97;5068848;28;20055;-86
2022/04/26 18:26:25;;;;;;;10.05;4.50;;;;;;;19.57;47.33;100356.22;5079614;28;20099;-84
2022/04/26 18:28:57;;;;;;;13.98;4.35;;;;;;;19.54;47.16;100357.22;5081327;28;20066;-82
2022/04/26 18:31:27;;;;;;;8.27;3.28;;;;;;;19.60;46.97;100353.47;5068598;28;20048;-81
2022/04/26 18:33:53;;;;;;;5.75;3.42;;;;;;;19.61;46.83;100368.50;5066771;28;20306;-84
2022/04/26 18:36:25;;;;;;;9.10;4.10;;;;;;;19.38;46.69;100332.97;5078383;28;20383;-84
2022/04/26 18:38:54;;;;;;;12.23;3.53;;;;;;;19.54;47.12;100370.53;5079284;28;20054;-83
2022/04/26 18:41:25;;;;;;;7.50;3.40;;;;;;;19.64;46.62;100372.84;5064435;28;20059;-85
2022/04/26 18:43:55;;;;;;;7.47;4.05;;;;;;;19.58;46.90;100366.84;5080682;28;20036;-82
2022/04/26 18:46:27;;;;;;;10.95;3.22;;;;;;;19.50;46.92;100370.69;5077647;28;20063;-84
2022/04/26 18:48:53;;;;;;;7.03;2.78;;;;;;;19.47;47.21;100379.69;5067990;28;20050;-80
2022/04/26 18:51:20;;;;;;;7.35;3.20;;;;;;;19.28;47.56;100370.66;5066291;28;20043;-85
2022/04/26 18:53:46;;;;;;;7.85;2.97;;;;;;;19.28;47.84;100379.50;5052675;28;20081;-85
2022/04/26 18:56:15;;;;;;;7.90;3.40;;;;;;;19.33;48.04;100390.81;5068293;28;20048;-83
2022/04/26 18:58:43;;;;;;;8.18;4.13;;;;;;;19.27;47.98;100382.19;5078934;28;20044;-83
2022/04/26 19:01:09;;;;;;;9.52;4.15;;;;;;;19.17;48.56;100387.88;5065700;28;20054;-84
2022/04/26 19:03:37;;;;;;;11.13;3.03;;;;;;;19.14;48.71;100400.41;5067666;28;20037;-84
2022/04/26 19:06:04;;;;;;;6.05;3.80;;;;;;;19.09;48.92;100397.03;5077347;28;20092;-85
2022/04/26 19:08:31;;;;;;;9.07;3.95;;;;;;;19.16;48.33;100391.44;5082046;28;20040;-83
2022/04/26 19:13:45;;;;;;;8.95;3.95;;;;;;;19.10;48.81;100394.31;5080951;28;20130;-84
2022/04/26 19:16:11;;;;;;;9.65;4.38;;;;;;;19.01;48.94;100391.13;5080069;28;20044;-83
2022/04/26 19:18:38;;;;;;;9.85;4.28;;;;;;;19.00;49.72;100402.69;5068034;28;20487;-81
2022/04/26 19:21:04;;;;;;;7.25;4.40;;;;;;;18.72;49.69;100369.03;5064566;28;20162;-85
2022/04/26 19:23:31;;;;;;;17.58;6.25;;;;;;;18.92;50.09;100411.81;5075491;28;20134;-79
2022/04/26 19:26:00;;;;;;;10.45;4.07;;;;;;;18.71;50.00;100378.81;5083746;28;20055;-76
2022/04/26 19:28:31;;;;;;;6.60;2.95;;;;;;;18.59;51.00;100360.63;5084672;28;20044;-77
2022/04/26 19:30:58;;;;;;;14.48;4.50;;;;;;;18.88;50.25;100404.84;5073491;28;20105;-80
2022/04/26 19:33:24;;;;;;;9.48;4.43;;;;;;;18.76;51.48;100389.28;5067526;28;20035;-78
2022/04/26 19:35:51;;;;;;;9.60;3.72;;;;;;;18.47;53.69;100372.53;5077585;28;20102;-80
2022/04/26 19:38:22;;;;;;;20.02;3.78;;;;;;;18.45;51.76;100373.47;5070122;28;20046;-79
2022/04/26 19:40:49;;;;;;;11.00;4.22;;;;;;;18.42;52.64;100368.28;5068855;28;20052;-79
2022/04/26 19:43:16;;;;;;;9.48;3.78;;;;;;;18.73;52.62;100421.28;5083756;28;20040;-80
2022/04/26 19:45:43;;;;;;;6.30;3.72;;;;;;;18.32;53.00;100373.91;5084447;28;20032;-77
2022/04/26 19:48:10;;;;;;;7.30;4.22;;;;;;;18.60;52.46;100412.84;5067344;28;20446;-81
2022/04/26 19:53:21;;;;;;;23.75;5.45;;;;;;;18.55;53.64;100412.13;5079471;28;20047;-79
2022/04/26 19:55:49;;;;;;;12.93;5.20;;;;;;;18.26;53.57;100376.78;5063795;28;20048;-78
2022/04/26 19:58:15;;;;;;;12.45;6.05;;;;;;;18.63;52.12;100403.91;5088032;28;20051;-79